Time;durP1;ratioP1;P1;durP2;ratioP2;P2;SDS_P1;SDS_P2;PMS_P1;PMS_P2;Temp;Humidity;BMP_temperature;BMP_pressure;BME280_temperature;BME280_humidity;BME280_pressure;Samples;Min_cycle;Max_cycle;Signal;HPM_P1;HPM_P2
2022/06/13 00:00:45;;;;;;;2.38;1.30;;;;;;;;;;5017369;28;20030;-85
2022/06/13 00:03:10;;;;;;;3.00;1.27;;;;;;;;;;5016294;28;20536;-85
2022/06/13 00:05:36;;;;;;;3.38;1.20;;;;;;;;;;5017795;28;20347;-84
2022/06/13 00:08:02;;;;;;;3.70;1.30;;;;;;;;;;5017634;28;20044;-86
2022/06/13 00:10:27;;;;;;;4.43;1.20;;;;;;;;;;5018833;28;20052;-85
2022/06/13 00:12:53;;;;;;;2.30;1.35;;;;;;;;;;5016442;28;20081;-84
2022/06/13 00:15:18;;;;;;;3.92;1.20;;;;;;;;;;5016556;28;20460;-85
2022/06/13 00:17:44;;;;;;;1.35;1.20;;;;;;;;;;5016311;28;20034;-85
2022/06/13 00:20:11;;;;;;;4.28;1.85;;;;;;;;;;5017576;28;20037;-85
2022/06/13 00:22:36;;;;;;;1.45;1.23;;;;;;;;;;5017595;28;20037;-85
2022/06/13 00:25:02;;;;;;;2.90;1.20;;;;;;;;;;4999088;28;20376;-85
2022/06/13 00:27:28;;;;;;;1.55;1.25;;;;;;;;;;5017625;28;20034;-85
2022/06/13 00:29:53;;;;;;;2.75;1.20;;;;;;;;;;5015868;28;20045;-84
2022/06/13 00:32:19;;;;;;;1.48;1.30;;;;;;;;;;5016927;28;20487;-85
2022/06/13 00:34:46;;;;;;;1.50;1.17;;;;;;;;;;5016147;28;20038;-85
2022/06/13 00:37:11;;;;;;;2.20;1.25;;;;;;;;;;5016815;28;20053;-84
2022/06/13 00:39:37;;;;;;;6.78;1.50;;;;;;;;;;5016076;28;20038;-85
2022/06/13 00:42:03;;;;;;;2.13;1.20;;;;;;;;;;5017163;28;20030;-85
2022/06/13 00:44:33;;;;;;;3.50;1.40;;;;;;;;;;5016571;28;20475;-85
2022/06/13 00:46:59;;;;;;;1.30;1.20;;;;;;;;;;5015779;28;20041;-85
2022/06/13 00:49:38;;;;;;;1.95;1.50;;;;;;;;;;5015478;28;20054;-85
2022/06/13 00:52:22;;;;;;;2.03;1.33;;;;;;;;;;5017143;28;20065;-86
2022/06/13 00:54:50;;;;;;;2.95;1.30;;;;;;;;;;5016130;28;20049;-85
2022/06/13 00:57:19;;;;;;;4.72;1.48;;;;;;;;;;5016213;28;20069;-85
2022/06/13 00:59:47;;;;;;;2.85;1.63;;;;;;;;;;5016986;28;20037;-85
2022/06/13 01:02:13;;;;;;;3.15;1.48;;;;;;;;;;5016270;28;20037;-85
2022/06/13 01:04:40;;;;;;;3.17;1.38;;;;;;;;;;5016929;28;20037;-85
2022/06/13 01:07:08;;;;;;;2.08;1.50;;;;;;;;;;5016646;28;20037;-85
2022/06/13 01:12:18;;;;;;;2.00;1.48;;;;;;;;;;5015656;28;20046;-85
2022/06/13 01:15:02;;;;;;;2.42;1.80;;;;;;;;;;5016680;28;20026;-85
2022/06/13 01:17:55;;;;;;;5.03;1.70;;;;;;;;;;5017356;28;20044;-84
2022/06/13 01:20:39;;;;;;;4.32;1.95;;;;;;;;;;5017488;28;20042;-85
2022/06/13 01:23:10;;;;;;;5.75;1.80;;;;;;;;;;5016205;28;20088;-85
2022/06/13 01:26:14;;;;;;;4.28;1.95;;;;;;;;;;5015022;28;20046;-84
2022/06/13 01:28:57;;;;;;;4.30;2.00;;;;;;;;;;5015503;28;20128;-85
2022/06/13 01:31:26;;;;;;;;;;;;;;;;;;5016843;28;20067;-84
2022/06/13 01:34:04;;;;;;;2.97;2.13;;;;;;;;;;5014737;28;19909;-85
2022/06/13 01:37:04;;;;;;;5.35;2.30;;;;;;;;;;5014779;28;20498;-85
2022/06/13 01:39:48;;;;;;;3.88;2.20;;;;;;;;;;5015467;28;20030;-86
2022/06/13 01:42:19;;;;;;;;;;;;;;;;;;5016093;28;20498;-83
2022/06/13 01:44:52;;;;;;;4.90;2.40;;;;;;;;;;5015785;28;19961;-86
2022/06/13 01:47:41;;;;;;;6.22;2.40;;;;;;;;;;5018101;28;20386;-86
2022/06/13 01:50:18;;;;;;;5.28;2.35;;;;;;;;;;5015939;28;20038;-86
2022/06/13 01:53:04;;;;;;;2.67;2.13;;;;;;;;;;5020640;28;20029;-86
2022/06/13 01:55:48;;;;;;;4.88;2.40;;;;;;;;;;5022288;28;20465;-86
2022/06/13 01:58:44;;;;;;;3.72;2.17;;;;;;;;;;5023563;28;20038;-86
2022/06/13 02:01:21;;;;;;;4.90;2.40;;;;;;;;;;5025442;28;20061;-86
2022/06/13 02:04:09;;;;;;;2.90;2.17;;;;;;;;;;5026618;28;20509;-86
2022/06/13 02:06:40;;;;;;;5.15;2.08;;;;;;;;;;5026741;28;20479;-86
2022/06/13 02:09:17;;;;;;;4.18;2.17;;;;;;;;;;5025555;28;20034;-84
2022/06/13 02:11:42;;;;;;;3.15;2.38;;;;;;;;;;5025814;28;20038;-84
2022/06/13 02:14:23;;;;;;;3.42;2.25;;;;;;;;;;5025817;28;20044;-86
2022/06/13 02:17:10;;;;;;;4.80;2.30;;;;;;;;;;5024877;28;20030;-85
2022/06/13 02:19:41;;;;;;;4.57;2.55;;;;;;;;;;5026716;28;20052;-84
2022/06/13 02:22:23;;;;;;;4.00;2.30;;;;;;;;;;5025482;28;20048;-87
2022/06/13 02:25:08;;;;;;;4.32;2.67;;;;;;;;;;5024449;28;20041;-85
2022/06/13 02:27:37;;;;;;;4.25;2.38;;;;;;;;;;5023710;28;20053;-86
2022/06/13 02:30:07;;;;;;;7.70;2.50;;;;;;;;;;5023341;28;20096;-84
2022/06/13 02:32:39;;;;;;;6.25;2.30;;;;;;;;;;5023089;28;20038;-87
2022/06/13 02:35:17;;;;;;;4.07;2.20;;;;;;;;;;5022121;28;20183;-87
2022/06/13 02:37:48;;;;;;;4.80;2.53;;;;;;;;;;5022937;28;20084;-86
2022/06/13 02:40:23;;;;;;;3.97;2.88;;;;;;;;;;5023296;28;20117;-86
2022/06/13 02:42:58;;;;;;;3.38;2.40;;;;;;;;;;5022908;28;20038;-86
2022/06/13 02:45:46;;;;;;;7.55;2.58;;;;;;;;;;5022768;28;20112;-86
2022/06/13 02:48:19;;;;;;;3.75;2.33;;;;;;;;;;5022219;28;20080;-85
2022/06/13 02:50:57;;;;;;;5.72;2.40;;;;;;;;;;5020922;28;20034;-86
2022/06/13 02:53:26;;;;;;;3.78;2.40;;;;;;;;;;5022560;28;20048;-86
2022/06/13 02:56:17;;;;;;;3.05;2.42;;;;;;;;;;5022391;28;20038;-86
2022/06/13 02:58:52;;;;;;;2.70;2.20;;;;;;;;;;5019542;28;20053;-86
2022/06/13 03:01:25;;;;;;;3.20;2.50;;;;;;;;;;5022198;28;20103;-85
2022/06/13 03:04:20;;;;;;;3.63;2.13;;;;;;;;;;5021452;28;20046;-86
2022/06/13 03:06:59;;;;;;;2.80;2.10;;;;;;;;;;5023067;28;20038;-86
2022/06/13 03:09:57;;;;;;;5.50;1.75;;;;;;;;;;5021037;28;20064;-85
2022/06/13 03:12:36;;;;;;;4.32;2.15;;;;;;;;;;5005422;28;20185;-86
2022/06/13 03:15:09;;;;;;;4.45;2.00;;;;;;;;;;5022184;28;20068;-86
2022/06/13 03:17:57;;;;;;;3.88;1.90;;;;;;;;;;5022919;28;20562;-85
2022/06/13 03:20:42;;;;;;;2.63;1.80;;;;;;;;;;5023192;28;20038;-86
2022/06/13 03:23:30;;;;;;;2.58;1.75;;;;;;;;;;5023111;28;20092;-85
2022/06/13 03:26:02;;;;;;;2.90;1.65;;;;;;;;;;5020751;28;20056;-86
2022/06/13 03:28:41;;;;;;;3.83;1.73;;;;;;;;;;5022448;28;20064;-86
2022/06/13 03:31:12;;;;;;;2.45;2.00;;;;;;;;;;5022165;28;20034;-86
2022/06/13 03:33:41;;;;;;;3.25;2.13;;;;;;;;;;5021098;28;20044;-86
2022/06/13 03:36:30;;;;;;;4.82;2.05;;;;;;;;;;5004821;28;20049;-86
2022/06/13 03:39:10;;;;;;;2.35;1.90;;;;;;;;;;5022125;28;20034;-85
2022/06/13 03:41:43;;;;;;;3.40;1.90;;;;;;;;;;5020784;28;20042;-85
2022/06/13 03:44:14;;;;;;;4.90;2.38;;;;;;;;;;5019692;28;20041;-86
2022/06/13 03:46:47;;;;;;;3.70;2.00;;;;;;;;;;5020874;28;20042;-85
2022/06/13 03:49:27;;;;;;;3.88;2.20;;;;;;;;;;5021906;28;20037;-86
2022/06/13 03:51:54;;;;;;;4.80;2.30;;;;;;;;;;5021337;28;20034;-85
2022/06/13 03:54:50;;;;;;;3.25;2.33;;;;;;;;;;5019813;28;20033;-86
2022/06/13 03:57:27;;;;;;;3.30;2.30;;;;;;;;;;5020167;28;20046;-86
2022/06/13 03:59:59;;;;;;;3.38;2.30;;;;;;;;;;5020929;28;20577;-86
2022/06/13 04:02:28;;;;;;;6.70;2.50;;;;;;;;;;5020947;28;20213;-86
2022/06/13 04:04:54;;;;;;;3.53;2.20;;;;;;;;;;5018878;28;20038;-86
2022/06/13 04:07:21;;;;;;;3.58;2.40;;;;;;;;;;5021377;28;20072;-86
2022/06/13 04:09:50;;;;;;;2.90;2.13;;;;;;;;;;5021207;28;20053;-85
2022/06/13 04:12:22;;;;;;;3.40;2.40;;;;;;;;;;5020967;28;20049;-86
2022/06/13 04:14:59;;;;;;;3.63;2.70;;;;;;;;;;5020931;28;20586;-84
2022/06/13 04:17:54;;;;;;;14.90;3.92;;;;;;;;;;5022336;28;20161;-84
2022/06/13 04:20:43;;;;;;;6.60;2.72;;;;;;;;;;5014215;28;20037;-85
2022/06/13 04:23:28;;;;;;;6.20;3.40;;;;;;;;;;5022304;28;20038;-85
2022/06/13 04:25:57;;;;;;;4.60;2.70;;;;;;;;;;5022563;28;20038;-85
2022/06/13 04:28:39;;;;;;;4.97;3.00;;;;;;;;;;5022371;28;20120;-85
2022/06/13 04:31:07;;;;;;;8.43;3.53;;;;;;;;;;5023415;28;20045;-85
2022/06/13 04:33:39;;;;;;;6.93;3.15;;;;;;;;;;5024041;28;20478;-85
2022/06/13 04:36:07;;;;;;;3.88;2.97;;;;;;;;;;5021898;28;20068;-84
2022/06/13 04:38:35;;;;;;;6.18;3.50;;;;;;;;;;5023763;28;20104;-85
2022/06/13 04:41:03;;;;;;;4.82;3.10;;;;;;;;;;5022170;28;20498;-84
2022/06/13 04:43:35;;;;;;;5.25;3.30;;;;;;;;;;5021447;28;20037;-84
2022/06/13 04:46:06;;;;;;;5.50;3.28;;;;;;;;;;5019521;28;20034;-86
2022/06/13 04:48:32;;;;;;;4.90;3.10;;;;;;;;;;5018952;28;20038;-86
2022/06/13 04:51:07;;;;;;;4.53;3.05;;;;;;;;;;5021744;28;20104;-87
2022/06/13 04:53:59;;;;;;;7.88;3.40;;;;;;;;;;5022134;28;20034;-86
2022/06/13 04:56:25;;;;;;;3.42;2.78;;;;;;;;;;5022717;28;20045;-87
2022/06/13 04:58:52;;;;;;;5.85;3.05;;;;;;;;;;5021030;28;20034;-86
2022/06/13 05:01:46;;;;;;;6.38;2.60;;;;;;;;;;5022277;28;20034;-86
2022/06/13 05:04:18;;;;;;;3.58;2.70;;;;;;;;;;5020982;28;20041;-85
2022/06/13 05:06:47;;;;;;;4.18;3.00;;;;;;;;;;5021713;28;20041;-86
2022/06/13 05:09:21;;;;;;;4.88;2.85;;;;;;;;;;5022816;28;20041;-87
2022/06/13 05:12:07;;;;;;;3.53;2.60;;;;;;;;;;5022360;28;20501;-87
2022/06/13 05:14:54;;;;;;;3.33;2.63;;;;;;;;;;5022235;28;20030;-86
2022/06/13 05:17:58;;;;;;;4.70;2.38;;;;;;;;;;5022494;28;20105;-86
2022/06/13 05:20:31;;;;;;;3.72;2.50;;;;;;;;;;5022884;28;20033;-86
2022/06/13 05:22:59;;;;;;;4.65;2.60;;;;;;;;;;5022528;28;20406;-86
2022/06/13 05:25:45;;;;;;;3.08;2.15;;;;;;;;;;5021938;28;20050;-85
2022/06/13 05:28:12;;;;;;;2.50;1.88;;;;;;;;;;5004945;28;20037;-86
2022/06/13 05:30:47;;;;;;;4.05;1.90;;;;;;;;;;5022958;28;20030;-86
2022/06/13 05:33:16;;;;;;;4.47;1.80;;;;;;;;;;5022628;28;20116;-84
2022/06/13 05:35:43;;;;;;;2.63;1.77;;;;;;;;;;5024377;28;20404;-86
2022/06/13 05:38:19;;;;;;;2.80;1.80;;;;;;;;;;5029281;28;20060;-85
2022/06/13 05:40:45;;;;;;;4.20;1.60;;;;;;;;;;5026316;28;20126;-86
2022/06/13 05:43:12;;;;;;;2.38;1.70;;;;;;;;;;5027763;28;20038;-86
2022/06/13 05:45:40;;;;;;;2.88;1.75;;;;;;;;;;5026986;28;20029;-85
2022/06/13 05:48:11;;;;;;;2.92;1.65;;;;;;;;;;5025289;28;20638;-86
2022/06/13 05:50:37;;;;;;;3.22;2.08;;;;;;;;;;5020346;28;20034;-86
2022/06/13 05:53:03;;;;;;;3.20;1.85;;;;;;;;;;5022014;28;20038;-85
2022/06/13 05:55:29;;;;;;;2.85;1.67;;;;;;;;;;5021458;28;20036;-85
2022/06/13 05:57:54;;;;;;;2.80;1.60;;;;;;;;;;5021426;28;20128;-84
2022/06/13 06:00:26;;;;;;;2.58;1.92;;;;;;;;;;5020783;28;20514;-84
2022/06/13 06:02:51;;;;;;;3.40;1.77;;;;;;;;;;5022736;28;20045;-84
2022/06/13 06:05:17;;;;;;;2.50;1.73;;;;;;;;;;5023198;28;20014;-85
2022/06/13 06:07:42;;;;;;;3.17;2.00;;;;;;;;;;5022823;28;20552;-84
2022/06/13 06:10:17;;;;;;;2.75;2.00;;;;;;;;;;5019361;28;20045;-84
2022/06/13 06:12:43;;;;;;;2.38;1.70;;;;;;;;;;5021517;28;20061;-85
2022/06/13 06:15:09;;;;;;;2.95;1.80;;;;;;;;;;5022308;28;20045;-88
2022/06/13 06:17:34;;;;;;;2.30;1.60;;;;;;;;;;5024630;28;20110;-86
2022/06/13 06:20:00;;;;;;;2.35;1.70;;;;;;;;;;5022680;28;20065;-85
2022/06/13 06:22:25;;;;;;;2.88;1.70;;;;;;;;;;5022004;28;20044;-85
2022/06/13 06:24:51;;;;;;;2.75;1.70;;;;;;;;;;5023111;28;20034;-85
2022/06/13 06:27:16;;;;;;;4.25;1.63;;;;;;;;;;5025111;28;20038;-86
2022/06/13 06:29:42;;;;;;;3.67;1.50;;;;;;;;;;5027849;28;20044;-86
2022/06/13 06:32:08;;;;;;;1.83;1.45;;;;;;;;;;5025758;28;20034;-87
2022/06/13 06:34:33;;;;;;;2.13;1.50;;;;;;;;;;5025529;28;20087;-86
2022/06/13 06:36:59;;;;;;;3.10;1.30;;;;;;;;;;5025099;28;20040;-88
2022/06/13 06:39:24;;;;;;;2.83;1.50;;;;;;;;;;5027505;28;20037;-87
2022/06/13 06:41:51;;;;;;;2.75;1.20;;;;;;;;;;5028381;28;20042;-87
2022/06/13 06:44:17;;;;;;;1.98;1.20;;;;;;;;;;5025756;28;20053;-88
2022/06/13 06:46:43;;;;;;;2.05;1.35;;;;;;;;;;5026640;28;20380;-86
2022/06/13 06:49:09;;;;;;;2.38;1.40;;;;;;;;;;5024204;28;20034;-87
2022/06/13 06:51:37;;;;;;;3.33;1.40;;;;;;;;;;5022657;28;20034;-86
2022/06/13 07:02:15;;;;;;;4.28;1.70;;;;;;;;;;5027079;28;20100;-86
2022/06/13 07:04:40;;;;;;;4.68;1.70;;;;;;;;;;5027895;28;20041;-86
2022/06/13 07:07:06;;;;;;;3.45;1.75;;;;;;;;;;5029479;28;20041;-85
2022/06/13 07:09:31;;;;;;;2.40;1.60;;;;;;;;;;5028247;28;20092;-85
2022/06/13 07:11:57;;;;;;;2.40;1.63;;;;;;;;;;5029855;28;20406;-85
2022/06/13 07:14:29;;;;;;;4.57;1.83;;;;;;;;;;5027721;28;20049;-86
2022/06/13 07:16:57;;;;;;;3.28;1.80;;;;;;;;;;5028139;28;20034;-86
2022/06/13 07:19:23;;;;;;;2.75;1.75;;;;;;;;;;5028521;28;20069;-85
2022/06/13 07:21:49;;;;;;;3.45;1.75;;;;;;;;;;5024416;28;20041;-86
2022/06/13 07:24:15;;;;;;;2.58;1.40;;;;;;;;;;5027251;28;20042;-86
2022/06/13 07:26:41;;;;;;;2.22;1.50;;;;;;;;;;5027090;28;20030;-84
2022/06/13 07:29:06;;;;;;;3.58;1.65;;;;;;;;;;5025878;28;20036;-85
2022/06/13 07:31:32;;;;;;;3.15;1.92;;;;;;;;;;5024536;28;20088;-85
2022/06/13 07:33:57;;;;;;;4.15;3.20;;;;;;;;;;5023454;28;20068;-83
2022/06/13 07:36:23;;;;;;;3.88;2.80;;;;;;;;;;5024809;28;20046;-83
2022/06/13 07:38:49;;;;;;;2.17;1.40;;;;;;;;;;5026395;28;20073;-85
2022/06/13 07:41:19;;;;;;;5.53;2.70;;;;;;;;;;5027082;28;20045;-86
2022/06/13 07:43:45;;;;;;;2.53;1.80;;;;;;;;;;5026068;28;20042;-86
2022/06/13 07:46:12;;;;;;;2.78;1.70;;;;;;;;;;5025476;28;20038;-88
2022/06/13 07:48:37;;;;;;;3.00;2.10;;;;;;;;;;5017861;28;20044;-89
2022/06/13 07:51:05;;;;;;;7.45;3.05;;;;;;;;;;5023784;28;20502;-86
2022/06/13 07:53:32;;;;;;;1.90;1.70;;;;;;;;;;5024706;28;20040;-84
2022/06/13 07:55:58;;;;;;;4.47;2.35;;;;;;;;;;5006547;28;20044;-84
2022/06/13 07:58:35;;;;;;;4.93;1.73;;;;;;;;;;5007058;28;20105;-84
2022/06/13 08:01:02;;;;;;;3.70;2.30;;;;;;;;;;5025098;28;20041;-83
2022/06/13 08:03:30;;;;;;;3.35;1.58;;;;;;;;;;5025305;28;20038;-86
2022/06/13 08:05:57;;;;;;;2.88;1.65;;;;;;;;;;5026558;28;20037;-84
2022/06/13 08:08:22;;;;;;;6.53;1.88;;;;;;;;;;5024637;28;20042;-85
2022/06/13 08:10:49;;;;;;;2.22;1.33;;;;;;;;;;5025738;28;20068;-84
2022/06/13 08:13:17;;;;;;;1.95;1.40;;;;;;;;;;5024912;28;20207;-85
2022/06/13 08:15:44;;;;;;;4.88;1.48;;;;;;;;;;5025230;28;20068;-85
2022/06/13 08:18:13;;;;;;;3.25;1.30;;;;;;;;;;5025529;28;20038;-85
2022/06/13 08:20:41;;;;;;;2.75;1.40;;;;;;;;;;5025233;28;20057;-84
2022/06/13 08:23:08;;;;;;;1.80;1.10;;;;;;;;;;5026207;28;20037;-84
2022/06/13 08:25:36;;;;;;;2.28;1.42;;;;;;;;;;5023678;28;20105;-85
2022/06/13 08:28:03;;;;;;;5.40;1.50;;;;;;;;;;5026187;28;20065;-85
2022/06/13 08:30:36;;;;;;;1.65;1.30;;;;;;;;;;5024941;28;20041;-85
2022/06/13 08:33:02;;;;;;;2.13;1.35;;;;;;;;;;5025370;28;20034;-85
2022/06/13 08:35:27;;;;;;;2.83;1.55;;;;;;;;;;5022965;28;20533;-85
2022/06/13 08:37:53;;;;;;;2.33;1.25;;;;;;;;;;5024689;28;20033;-84
2022/06/13 08:40:18;;;;;;;2.15;1.30;;;;;;;;;;5021969;28;20109;-85
2022/06/13 08:43:06;;;;;;;2.30;1.30;;;;;;;;;;5017408;28;20030;-83
2022/06/13 08:45:38;;;;;;;1.70;1.30;;;;;;;;;;5017400;28;20261;-85
2022/06/13 08:48:16;;;;;;;2.97;1.48;;;;;;;;;;5016754;28;20124;-84
2022/06/13 08:51:12;;;;;;;3.45;1.45;;;;;;;;;;5020123;28;20041;-83
2022/06/13 08:53:56;;;;;;;2.33;1.40;;;;;;;;;;5015667;28;20053;-85
2022/06/13 08:56:22;;;;;;;;;;;;;;;;;;5027079;28;20117;-85
2022/06/13 08:59:22;;;;;;;3.55;1.50;;;;;;;;;;5025778;28;19913;-84
2022/06/13 09:01:52;;;;;;;1.83;1.38;;;;;;;;;;5027089;28;20018;-85
2022/06/13 09:04:50;;;;;;;2.20;1.40;;;;;;;;;;5017822;28;20540;-83
2022/06/13 09:07:36;;;;;;;4.05;1.60;;;;;;;;;;5007807;28;20041;-84
2022/06/13 09:10:30;;;;;;;3.00;1.30;;;;;;;;;;5013911;28;20037;-85
2022/06/13 09:13:10;;;;;;;2.10;1.50;;;;;;;;;;5018344;28;20045;-84
2022/06/13 09:15:48;;;;;;;2.75;1.40;;;;;;;;;;5019010;28;20041;-84
2022/06/13 09:18:29;;;;;;;2.00;1.30;;;;;;;;;;5019305;28;20026;-84
2022/06/13 09:21:03;;;;;;;2.90;1.52;;;;;;;;;;5001581;28;20049;-84
2022/06/13 09:23:36;;;;;;;4.32;1.55;;;;;;;;;;5018695;28;20108;-83
2022/06/13 09:26:10;;;;;;;4.05;1.58;;;;;;;;;;5018949;28;20128;-85
2022/06/13 09:28:50;;;;;;;2.42;1.60;;;;;;;;;;5019392;28;20030;-84
2022/06/13 09:31:26;;;;;;;6.13;1.70;;;;;;;;;;5018516;28;20042;-84
2022/06/13 09:33:57;;;;;;;3.72;1.73;;;;;;;;;;5019585;28;20033;-84
2022/06/13 09:36:30;;;;;;;6.72;1.63;;;;;;;;;;5018642;28;20083;-85
2022/06/13 09:39:07;;;;;;;2.72;1.60;;;;;;;;;;5019239;28;20442;-84
2022/06/13 09:41:54;;;;;;;3.03;1.40;;;;;;;;;;5019140;28;20037;-84
2022/06/13 09:44:28;;;;;;;2.60;1.60;;;;;;;;;;5018036;28;20044;-85
2022/06/13 09:47:15;;;;;;;4.97;2.60;;;;;;;;;;5017529;28;20030;-83
2022/06/13 09:50:01;;;;;;;3.92;2.08;;;;;;;;;;5017326;28;20068;-85
2022/06/13 09:52:34;;;;;;;3.13;1.77;;;;;;;;;;5017199;28;20041;-83
2022/06/13 09:55:21;;;;;;;4.75;2.85;;;;;;;;;;5015758;28;20044;-84
2022/06/13 09:57:50;;;;;;;6.35;2.30;;;;;;;;;;5017989;28;20127;-86
2022/06/13 10:00:22;;;;;;;4.43;1.77;;;;;;;;;;5015764;28;20095;-85
2022/06/13 10:03:21;;;;;;;2.70;1.70;;;;;;;;;;5018255;28;20125;-84
2022/06/13 10:06:02;;;;;;;4.35;2.63;;;;;;;;;;5017210;28;20042;-84
2022/06/13 10:08:49;;;;;;;2.28;1.60;;;;;;;;;;5017317;28;20132;-84
2022/06/13 10:11:27;;;;;;;5.43;2.35;;;;;;;;;;5018218;28;20034;-84
2022/06/13 10:14:04;;;;;;;4.82;1.88;;;;;;;;;;5018837;28;20183;-83
2022/06/13 10:16:59;;;;;;;5.35;2.28;;;;;;;;;;5017895;28;20047;-83
2022/06/13 10:20:11;;;;;;;4.18;2.15;;;;;;;;;;5017045;28;20046;-85
2022/06/13 10:22:37;;;;;;;2.78;2.22;;;;;;;;;;5015844;28;20501;-83
2022/06/13 10:25:11;;;;;;;4.97;2.47;;;;;;;;;;5016680;28;20041;-84
2022/06/13 10:27:40;;;;;;;4.40;2.40;;;;;;;;;;5017587;28;20030;-84
2022/06/13 10:30:20;;;;;;;3.75;2.60;;;;;;;;;;5000526;28;20193;-83
2022/06/13 10:32:48;;;;;;;4.53;2.30;;;;;;;;;;5017992;28;20038;-85
2022/06/13 10:35:45;;;;;;;5.00;2.17;;;;;;;;;;5016752;28;20022;-84
2022/06/13 10:38:29;;;;;;;3.90;2.30;;;;;;;;;;5017117;28;20053;-85
2022/06/13 10:40:55;;;;;;;4.28;2.50;;;;;;;;;;5016949;28;20037;-83
2022/06/13 10:43:21;;;;;;;6.88;2.70;;;;;;;;;;5017883;28;20026;-84
2022/06/13 10:45:47;;;;;;;6.68;2.60;;;;;;;;;;5017824;28;20117;-83
2022/06/13 10:48:22;;;;;;;4.82;2.60;;;;;;;;;;5015854;28;20102;-84
2022/06/13 10:50:55;;;;;;;4.57;2.42;;;;;;;;;;5017164;28;20041;-84
2022/06/13 10:53:30;;;;;;;4.00;1.95;;;;;;;;;;5017128;28;20037;-85
2022/06/13 10:55:59;;;;;;;6.28;2.05;;;;;;;;;;5015361;28;20048;-84
2022/06/13 10:58:39;;;;;;;2.63;1.80;;;;;;;;;;5016015;28;20037;-84
2022/06/13 11:01:10;;;;;;;5.43;2.13;;;;;;;;;;5016198;28;20062;-85
2022/06/13 11:03:40;;;;;;;3.58;1.70;;;;;;;;;;5016825;28;20402;-85
2022/06/13 11:06:13;;;;;;;4.03;1.90;;;;;;;;;;5016608;28;20387;-88
2022/06/13 11:08:40;;;;;;;3.88;1.60;;;;;;;;;;5017932;28;20667;-87
2022/06/13 11:11:16;;;;;;;3.35;2.00;;;;;;;;;;5019424;28;20105;-86
2022/06/13 11:13:52;;;;;;;2.65;2.00;;;;;;;;;;5017871;28;20080;-86
2022/06/13 11:22:37;;;;;;;4.70;2.17;;;;;;;;;;5019855;28;20034;-87
2022/06/13 11:25:21;;;;;;;2.47;1.90;;;;;;;;;;5014977;28;20046;-87
2022/06/13 11:28:05;;;;;;;4.68;2.20;;;;;;;;;;5021007;28;20565;-87
2022/06/13 11:30:43;;;;;;;2.63;2.17;;;;;;;;;;5019690;28;20105;-87
2022/06/13 11:33:33;;;;;;;3.10;2.13;;;;;;;;;;5018749;28;20046;-87
2022/06/13 11:36:03;;;;;;;4.63;2.78;;;;;;;;;;5019413;28;20034;-87
2022/06/13 11:38:28;;;;;;;5.15;2.45;;;;;;;;;;5017935;28;20495;-86
2022/06/13 11:41:29;;;;;;;6.13;2.50;;;;;;;;;;5019316;28;20029;-87
2022/06/13 11:43:59;;;;;;;4.07;2.65;;;;;;;;;;5018186;28;20053;-85
2022/06/13 11:46:27;;;;;;;3.58;2.10;;;;;;;;;;5018999;28;20029;-87
2022/06/13 11:48:55;;;;;;;3.95;2.38;;;;;;;;;;5017076;28;20525;-86
2022/06/13 11:51:25;;;;;;;4.00;2.20;;;;;;;;;;5017374;28;20022;-87
2022/06/13 11:53:53;;;;;;;3.67;2.40;;;;;;;;;;5017217;28;20030;-87
2022/06/13 11:56:31;;;;;;;3.97;2.20;;;;;;;;;;5017898;28;20486;-87
2022/06/13 11:59:01;;;;;;;4.28;2.10;;;;;;;;;;5018749;28;20034;-88
2022/06/13 12:01:36;;;;;;;3.30;2.10;;;;;;;;;;5016879;28;20044;-87
2022/06/13 12:04:13;;;;;;;3.80;1.63;;;;;;;;;;5017235;28;20056;-87
2022/06/13 12:06:49;;;;;;;2.30;1.65;;;;;;;;;;5017938;28;20037;-87
2022/06/13 12:09:21;;;;;;;3.03;1.67;;;;;;;;;;5015048;28;20581;-87
2022/06/13 12:11:52;;;;;;;3.17;1.42;;;;;;;;;;5015207;28;20037;-85
2022/06/13 12:14:18;;;;;;;2.80;1.45;;;;;;;;;;5014818;28;20040;-85
2022/06/13 12:17:02;;;;;;;3.72;1.52;;;;;;;;;;5015226;28;20557;-86
2022/06/13 12:19:37;;;;;;;6.07;1.60;;;;;;;;;;5016444;28;20077;-85
2022/06/13 12:22:15;;;;;;;4.57;1.88;;;;;;;;;;5015339;28;20101;-84
2022/06/13 12:24:46;;;;;;;3.67;1.58;;;;;;;;;;5014032;28;20025;-84
2022/06/13 12:27:11;;;;;;;3.47;1.73;;;;;;;;;;5015111;28;20044;-86
2022/06/13 12:29:48;;;;;;;2.80;1.50;;;;;;;;;;5014985;28;20041;-87
2022/06/13 12:32:36;;;;;;;2.83;1.60;;;;;;;;;;5016566;28;20037;-85
2022/06/13 12:35:14;;;;;;;5.03;1.50;;;;;;;;;;5022247;28;20125;-84
2022/06/13 12:38:09;;;;;;;3.42;1.50;;;;;;;;;;5022258;28;20033;-84
2022/06/13 12:40:52;;;;;;;3.67;1.50;;;;;;;;;;5013123;28;20050;-85
2022/06/13 12:43:27;;;;;;;;;;;;;;;;;;5020808;28;20123;-85
2022/06/13 12:46:11;;;;;;;4.57;1.58;;;;;;;;;;5019682;28;19913;-85
2022/06/13 12:48:52;;;;;;;2.78;1.45;;;;;;;;;;5020185;28;20108;-85
2022/06/13 12:51:40;;;;;;;5.95;1.60;;;;;;;;;;5020243;28;20033;-85
2022/06/13 12:54:34;;;;;;;2.60;1.55;;;;;;;;;;5018700;28;20038;-85
2022/06/13 12:57:27;;;;;;;3.47;1.60;;;;;;;;;;5010028;28;20052;-86
2022/06/13 13:00:09;;;;;;;2.07;1.53;;;;;;;;;;5020372;28;20064;-85
2022/06/13 13:02:43;;;;;;;3.97;1.50;;;;;;;;;;5019785;28;20772;-85
2022/06/13 13:05:24;;;;;;;3.92;1.50;;;;;;;;;;5001532;28;20087;-85
2022/06/13 13:08:02;;;;;;;3.40;1.58;;;;;;;;;;5019986;28;20509;-85
2022/06/13 13:10:42;;;;;;;3.97;1.60;;;;;;;;;;5018987;28;20034;-86
2022/06/13 13:13:35;;;;;;;2.15;1.60;;;;;;;;;;5019847;28;20026;-85
2022/06/13 13:16:14;;;;;;;2.83;1.40;;;;;;;;;;5016657;28;20529;-87
2022/06/13 13:18:48;;;;;;;6.93;1.60;;;;;;;;;;5014488;28;20406;-85
2022/06/13 13:21:21;;;;;;;4.55;1.50;;;;;;;;;;5013840;28;20510;-85
2022/06/13 13:24:01;;;;;;;3.28;1.70;;;;;;;;;;5014518;28;20033;-85
2022/06/13 13:26:29;;;;;;;6.10;1.60;;;;;;;;;;5014876;28;20133;-86
2022/06/13 13:29:26;;;;;;;3.60;1.48;;;;;;;;;;5013628;28;20041;-85
2022/06/13 13:32:20;;;;;;;2.67;1.35;;;;;;;;;;5013287;28;20042;-85
2022/06/13 13:34:57;;;;;;;3.05;1.50;;;;;;;;;;5014224;28;20088;-85
2022/06/13 13:37:26;;;;;;;4.03;1.80;;;;;;;;;;5015080;28;20045;-85
2022/06/13 13:40:33;;;;;;;3.53;1.40;;;;;;;;;;5013507;28;20038;-86
2022/06/13 13:43:22;;;;;;;4.60;1.50;;;;;;;;;;5003718;28;20438;-85
2022/06/13 13:46:23;;;;;;;4.15;1.40;;;;;;;;;;5012952;28;20034;-85
2022/06/13 13:48:57;;;;;;;3.25;1.40;;;;;;;;;;4994977;28;20066;-85
2022/06/13 13:51:26;;;;;;;4.10;1.20;;;;;;;;;;5014509;28;20073;-85
2022/06/13 13:54:20;;;;;;;5.45;1.35;;;;;;;;;;5013040;28;20030;-86
2022/06/13 13:56:49;;;;;;;;;;;;;;;;;;5016256;28;20038;-85
2022/06/13 13:59:20;;;;;;;5.00;1.70;;;;;;;;;;5018811;28;19913;-85
2022/06/13 14:02:25;;;;;;;2.45;1.30;;;;;;;;;;5018708;28;20128;-85
2022/06/13 14:05:01;;;;;;;5.32;1.52;;;;;;;;;;5013678;28;20468;-87
2022/06/13 14:07:50;;;;;;;2.47;1.30;;;;;;;;;;5020446;28;20091;-85
2022/06/13 14:10:18;;;;;;;5.18;1.40;;;;;;;;;;5019223;28;20029;-85
2022/06/13 14:13:07;;;;;;;2.90;1.30;;;;;;;;;;5017110;28;20029;-86
2022/06/13 14:15:49;;;;;;;3.60;1.25;;;;;;;;;;5016939;28;20096;-85
2022/06/13 14:18:35;;;;;;;5.60;1.40;;;;;;;;;;5018094;28;20037;-84
2022/06/13 14:21:19;;;;;;;6.75;1.48;;;;;;;;;;5018572;28;20136;-85
2022/06/13 14:23:52;;;;;;;3.78;1.27;;;;;;;;;;5017861;28;20119;-85
2022/06/13 14:26:41;;;;;;;2.95;1.30;;;;;;;;;;5017913;28;20026;-85
2022/06/13 14:29:28;;;;;;;3.85;1.30;;;;;;;;;;5014972;28;20046;-85
2022/06/13 14:32:00;;;;;;;4.07;1.10;;;;;;;;;;5016881;28;20080;-85
2022/06/13 14:37:42;;;;;;;3.17;1.15;;;;;;;;;;5022881;28;20138;-86
2022/06/13 14:40:14;;;;;;;3.28;1.20;;;;;;;;;;5028015;28;20072;-87
2022/06/13 14:42:57;;;;;;;3.28;1.30;;;;;;;;;;5029565;28;20042;-86
2022/06/13 14:45:48;;;;;;;4.30;1.35;;;;;;;;;;5028230;28;20140;-87
2022/06/13 14:48:46;;;;;;;2.42;1.30;;;;;;;;;;5027896;28;20107;-86
2022/06/13 14:51:19;;;;;;;4.55;1.40;;;;;;;;;;5028212;28;20033;-86
2022/06/13 14:53:45;;;;;;;3.20;1.63;;;;;;;;;;5028217;28;20061;-87
2022/06/13 14:56:10;;;;;;;5.15;1.30;;;;;;;;;;5025632;28;20478;-86
2022/06/13 14:58:42;;;;;;;2.95;1.40;;;;;;;;;;5027150;28;20033;-86
2022/06/13 15:01:26;;;;;;;5.32;1.30;;;;;;;;;;5027627;28;20073;-87
2022/06/13 15:04:04;;;;;;;4.82;1.50;;;;;;;;;;5027383;28;20057;-87
2022/06/13 15:06:36;;;;;;;6.68;1.48;;;;;;;;;;5027251;28;20053;-87
2022/06/13 15:09:22;;;;;;;2.80;1.20;;;;;;;;;;5026702;28;20089;-86
2022/06/13 15:11:52;;;;;;;4.03;1.58;;;;;;;;;;5027393;28;20041;-86
2022/06/13 15:14:30;;;;;;;3.33;1.40;;;;;;;;;;5027826;28;20041;-86
2022/06/13 15:16:58;;;;;;;3.05;1.38;;;;;;;;;;5026233;28;20042;-85
2022/06/13 15:19:33;;;;;;;4.63;1.30;;;;;;;;;;5025289;28;20029;-86
2022/06/13 15:22:05;;;;;;;3.65;1.40;;;;;;;;;;5023668;28;20034;-85
2022/06/13 15:24:47;;;;;;;4.22;1.27;;;;;;;;;;5024635;28;20042;-85
2022/06/13 15:27:13;;;;;;;3.95;1.55;;;;;;;;;;5024978;28;20040;-84
2022/06/13 15:29:38;;;;;;;4.22;1.40;;;;;;;;;;5024844;28;20105;-85
2022/06/13 15:32:24;;;;;;;3.67;1.40;;;;;;;;;;5026069;28;20093;-85
2022/06/13 15:34:55;;;;;;;6.63;1.60;;;;;;;;;;5024404;28;20034;-84
2022/06/13 15:37:21;;;;;;;3.55;1.33;;;;;;;;;;5026402;28;20045;-85
2022/06/13 15:39:47;;;;;;;9.18;1.65;;;;;;;;;;5024787;28;20034;-85
2022/06/13 15:42:22;;;;;;;4.10;1.35;;;;;;;;;;5028642;28;20097;-84
2022/06/13 15:44:49;;;;;;;8.15;1.60;;;;;;;;;;5027305;28;20045;-84
2022/06/13 15:47:15;;;;;;;6.22;1.30;;;;;;;;;;5026546;28;20053;-84
2022/06/13 15:49:44;;;;;;;3.72;1.50;;;;;;;;;;5027463;28;20041;-84
2022/06/13 15:52:27;;;;;;;3.05;1.48;;;;;;;;;;5019609;28;20061;-85